Map

Track Data

SID SEASON NUMBER BASIN SUBBASIN NAME ISO_TIME NATURE LAT LON WMO_WIND WMO_PRES WMO_AGENCY TRACK_TYPE DIST2LAND LANDFALL IFLAG USA_AGENCY USA_ATCF_ID USA_LAT USA_LON USA_RECORD USA_STATUS USA_WIND USA_PRES USA_SSHS USA_R34_NE USA_R34_SE USA_R34_SW USA_R34_NW USA_R50_NE USA_R50_SE USA_R50_SW USA_R50_NW USA_R64_NE USA_R64_SE USA_R64_SW USA_R64_NW USA_POCI USA_ROCI USA_RMW USA_EYE TOKYO_LAT TOKYO_LON TOKYO_GRADE TOKYO_WIND TOKYO_PRES TOKYO_R50_DIR TOKYO_R50_LONG TOKYO_R50_SHORT TOKYO_R30_DIR TOKYO_R30_LONG TOKYO_R30_SHORT TOKYO_LAND CMA_LAT CMA_LON CMA_CAT CMA_WIND CMA_PRES HKO_LAT HKO_LON HKO_CAT HKO_WIND HKO_PRES NEWDELHI_LAT NEWDELHI_LON NEWDELHI_GRADE NEWDELHI_WIND NEWDELHI_PRES NEWDELHI_CI NEWDELHI_DP NEWDELHI_POCI REUNION_LAT REUNION_LON REUNION_TYPE REUNION_WIND REUNION_PRES REUNION_TNUM REUNION_CI REUNION_RMW REUNION_R34_NE REUNION_R34_SE REUNION_R34_SW REUNION_R34_NW REUNION_R50_NE REUNION_R50_SE REUNION_R50_SW REUNION_R50_NW REUNION_R64_NE REUNION_R64_SE REUNION_R64_SW REUNION_R64_NW BOM_LAT BOM_LON BOM_TYPE BOM_WIND BOM_PRES BOM_TNUM BOM_CI BOM_RMW BOM_R34_NE BOM_R34_SE BOM_R34_SW BOM_R34_NW BOM_R50_NE BOM_R50_SE BOM_R50_SW BOM_R50_NW BOM_R64_NE BOM_R64_SE BOM_R64_SW BOM_R64_NW BOM_ROCI BOM_POCI BOM_EYE BOM_POS_METHOD BOM_PRES_METHOD NADI_LAT NADI_LON NADI_CAT NADI_WIND NADI_PRES WELLINGTON_LAT WELLINGTON_LON WELLINGTON_WIND WELLINGTON_PRES DS824_LAT DS824_LON DS824_STAGE DS824_WIND DS824_PRES TD9636_LAT TD9636_LON TD9636_STAGE TD9636_WIND TD9636_PRES TD9635_LAT TD9635_LON TD9635_WIND TD9635_PRES TD9635_ROCI NEUMANN_LAT NEUMANN_LON NEUMANN_CLASS NEUMANN_WIND NEUMANN_PRES MLC_LAT MLC_LON MLC_CLASS MLC_WIND MLC_PRES USA_GUST BOM_GUST BOM_GUST_PER REUNION_GUST REUNION_GUST_PER USA_SEAHGT USA_SEARAD_NE USA_SEARAD_SE USA_SEARAD_SW USA_SEARAD_NW STORM_SPEED STORM_DIR
1913043S18039 1913 16 SI MM NOT_NAMED 1913-02-12 00:00:00 TS -18.1000 38.9000 main 113 113 _________O____ -1 -18.1000 38.9000 TC 25 8 137
1913043S18039 1913 16 SI MM NOT_NAMED 1913-02-12 03:00:00 TS -18.3975 39.1874 main 154 154 _________P____ -1 -18.3975 39.1874 TC 25 8 137
1913043S18039 1913 16 SI MM NOT_NAMED 1913-02-12 06:00:00 TS -18.7000 39.5000 main 194 194 _________O____ -1 -18.7000 39.5000 TC 25 9 134
1913043S18039 1913 16 SI MM NOT_NAMED 1913-02-12 09:00:00 TS -19.0075 39.8500 main 239 239 _________P____ -1 -19.0075 39.8500 TC 25 9 132
1913043S18039 1913 16 SI MM NOT_NAMED 1913-02-12 12:00:00 TS -19.3000 40.2000 main 282 282 _________O____ -1 -19.3000 40.2000 TC 25 8 132
1913043S18039 1913 16 SI MM NOT_NAMED 1913-02-12 15:00:00 TS -19.5574 40.5002 main 326 326 _________P____ -1 -19.5574 40.5002 TC 25 8 131
1913043S18039 1913 16 SI MM NOT_NAMED 1913-02-12 18:00:00 TS -19.8000 40.8000 main 333 294 _________O____ -1 -19.8000 40.8000 TC 25 8 129
1913043S18039 1913 16 SI MM NOT_NAMED 1913-02-12 21:00:00 TS -20.0576 41.1575 main 279 241 _________P____ -1 -20.0576 41.1575 TC 25 8 127
1913043S18039 1913 16 SI MM NOT_NAMED 1913-02-13 00:00:00 TS -20.3000 41.5000 main 241 203 _________O____ -1 -20.3000 41.5000 TC 25 7 129
1913043S18039 1913 16 SI MM NOT_NAMED 1913-02-13 03:00:00 TS -20.5149 41.7651 main 203 174 _________P____ -1 -20.5149 41.7651 TC 25 6 131
1913043S18039 1913 16 SI MM NOT_NAMED 1913-02-13 06:00:00 TS -20.7000 42.0000 main 174 150 _________O____ -1 -20.7000 42.0000 TC 25 6 127
1913043S18039 1913 16 SI MM NOT_NAMED 1913-02-13 09:00:00 TS -20.8575 42.2501 main 136 112 _________P____ -1 -20.8575 42.2501 TC 25 6 123
1913043S18039 1913 16 SI MM NOT_NAMED 1913-02-13 12:00:00 TS -21.0000 42.5000 main 112 89 _________O____ -1 -21.0000 42.5000 TC 25 6 122
1913043S18039 1913 16 SI MM NOT_NAMED 1913-02-13 15:00:00 TS -21.1500 42.7500 main 79 52 _________P____ -1 -21.1500 42.7500 TC 25 6 123
1913043S18039 1913 16 SI MM NOT_NAMED 1913-02-13 18:00:00 TS -21.3000 43.0000 main 52 31 _________O____ -1 -21.3000 43.0000 TC 25 6 122
1913043S18039 1913 16 SI MM NOT_NAMED 1913-02-13 21:00:00 TS -21.4500 43.2575 main 20 0 _________P____ -1 -21.4500 43.2575 TC 25 6 123
1913043S18039 1913 16 SI MM NOT_NAMED 1913-02-14 00:00:00 TS -21.6000 43.5000 main 0 0 _________O____ -1 -21.6000 43.5000 TC 25 5 126
1913043S18039 1913 16 SI MM NOT_NAMED 1913-02-14 03:00:00 TS -21.7574 43.7075 main 0 0 _________P____ -1 -21.7574 43.7075 TC 25 5 129
1913043S18039 1913 16 SI MM NOT_NAMED 1913-02-14 06:00:00 TS -21.9000 43.9000 main 0 0 _________O____ -1 -21.9000 43.9000 TC 25 4 124
1913043S18039 1913 16 SI MM NOT_NAMED 1913-02-14 09:00:00 TS -22.0075 44.1001 main 0 0 _________P____ -1 -22.0075 44.1001 TC 25 4 118
1913043S18039 1913 16 SI MM NOT_NAMED 1913-02-14 12:00:00 TS -22.1000 44.3000 main 0 0 _________O____ -1 -22.1000 44.3000 TC 25 4 118
1913043S18039 1913 16 SI MM NOT_NAMED 1913-02-14 15:00:00 TS -22.1999 44.4925 main 0 0 _________P____ -1 -22.1999 44.4925 TC 25 4 118
1913043S18039 1913 16 SI MM NOT_NAMED 1913-02-14 18:00:00 TS -22.3000 44.7000 main 0 0 _________O____ -1 -22.3000 44.7000 TC 25 5 114
1913043S18039 1913 16 SI MM NOT_NAMED 1913-02-14 21:00:00 TS -22.3925 44.9500 main 0 0 _________P____ -1 -22.3925 44.9500 TC 25 5 113
1913043S18039 1913 16 SI MM NOT_NAMED 1913-02-15 00:00:00 TS -22.5000 45.2000 main 0 0 _________O____ -1 -22.5000 45.2000 TC 25 5 121
1913043S18039 1913 16 SI MM NOT_NAMED 1913-02-15 03:00:00 TS -22.6499 45.4075 main 0 0 _________P____ -1 -22.6499 45.4075 TC 25 5 129
1913043S18039 1913 16 SI MM NOT_NAMED 1913-02-15 06:00:00 TS -22.8000 45.6000 main 0 0 _________O____ -1 -22.8000 45.6000 TC 25 5 126
1913043S18039 1913 16 SI MM NOT_NAMED 1913-02-15 09:00:00 TS -22.9150 45.8075 main 0 0 _________P____ -1 -22.9150 45.8075 TC 25 4 118
1913043S18039 1913 16 SI MM NOT_NAMED 1913-02-15 12:00:00 TS -23.0000 46.0000 main 0 0 _________O____ -1 -23.0000 46.0000 TC 25 3 113
1913043S18039 1913 16 SI MM NOT_NAMED 1913-02-15 15:00:00 TS -23.0499 46.1501 main 0 0 _________P____ -1 -23.0499 46.1501 TC 25 3 110
1913043S18039 1913 16 SI MM NOT_NAMED 1913-02-15 18:00:00 TS -23.1000 46.3000 main 0 0 _________O____ -1 -23.1000 46.3000 TC 25 4 115
1913043S18039 1913 16 SI MM NOT_NAMED 1913-02-15 21:00:00 TS -23.2000 46.4999 main 0 0 _________P____ -1 -23.2000 46.4999 TC 25 4 119
1913043S18039 1913 16 SI MM NOT_NAMED 1913-02-16 00:00:00 TS -23.3000 46.7000 main 0 0 _________O____ -1 -23.3000 46.7000 TC 25 4 115
1913043S18039 1913 16 SI MM NOT_NAMED 1913-02-16 03:00:00 TS -23.3499 46.8501 main 0 0 _________P____ -1 -23.3499 46.8501 TC 25 3 110
1913043S18039 1913 16 SI MM NOT_NAMED 1913-02-16 06:00:00 TS -23.4000 47.0000 main 0 0 _________O____ -1 -23.4000 47.0000 TC 25 4 114
1913043S18039 1913 16 SI MM NOT_NAMED 1913-02-16 09:00:00 TS -23.4925 47.2000 main 0 0 _________P____ -1 -23.4925 47.2000 TC 25 4 119
1913043S18039 1913 16 SI MM NOT_NAMED 1913-02-16 12:00:00 TS -23.6000 47.4000 main 0 0 _________O____ -1 -23.6000 47.4000 TC 25 4 124
1913043S18039 1913 16 SI MM NOT_NAMED 1913-02-16 15:00:00 TS -23.7074 47.5500 main 10 10 _________P____ -1 -23.7074 47.5500 TC 25 3 126
1913043S18039 1913 16 SI MM NOT_NAMED 1913-02-16 18:00:00 TS -23.8000 47.7000 main 20 20 _________O____ -1 -23.8000 47.7000 TC 25 3 116
1913043S18039 1913 16 SI MM NOT_NAMED 1913-02-16 21:00:00 TS -23.8601 47.8875 main 40 40 _________P____ -1 -23.8601 47.8875 TC 25 4 105
1913043S18039 1913 16 SI MM NOT_NAMED 1913-02-17 00:00:00 TS -23.9000 48.1000 main 60 _________O____ -1 -23.9000 48.1000 TC 25 4 102

About IBTrACS Database

This database is a web-friendly format of International Best Track Archive for Climate Stewardship (IBTrACS), a global best track data archive curated by NOAA dating back to 1842.

Updated: 2021-12-06